sensor_id;sensor_type;location;lat;lon;timestamp;temperature;humidity
27823;DHT22;29019;47.630;8.262;2023-05-13T00:01:10;19.90;56.10
27823;DHT22;29019;47.630;8.262;2023-05-13T00:05:11;19.90;56.00
27823;DHT22;29019;47.630;8.262;2023-05-13T00:09:11;19.90;56.00
27823;DHT22;29019;47.630;8.262;2023-05-13T00:13:12;19.90;56.10
27823;DHT22;29019;47.630;8.262;2023-05-13T00:17:13;19.90;56.10
27823;DHT22;29019;47.630;8.262;2023-05-13T00:21:13;19.90;56.10
27823;DHT22;29019;47.630;8.262;2023-05-13T00:25:14;19.90;56.10
27823;DHT22;29019;47.630;8.262;2023-05-13T00:29:15;19.90;56.10
27823;DHT22;29019;47.630;8.262;2023-05-13T00:33:16;19.90;56.00
27823;DHT22;29019;47.630;8.262;2023-05-13T00:37:16;19.90;56.00
27823;DHT22;29019;47.630;8.262;2023-05-13T00:41:17;19.90;56.00
27823;DHT22;29019;47.630;8.262;2023-05-13T00:45:19;19.90;56.00
27823;DHT22;29019;47.630;8.262;2023-05-13T00:49:19;19.90;56.10
27823;DHT22;29019;47.630;8.262;2023-05-13T00:53:20;19.90;56.00
27823;DHT22;29019;47.630;8.262;2023-05-13T00:57:21;19.90;56.00
27823;DHT22;29019;47.630;8.262;2023-05-13T01:01:37;19.90;56.10
27823;DHT22;29019;47.630;8.262;2023-05-13T01:14:06;19.90;56.10
27823;DHT22;29019;47.630;8.262;2023-05-13T01:18:18;19.90;56.10
27823;DHT22;29019;47.630;8.262;2023-05-13T01:22:19;19.90;56.10
27823;DHT22;29019;47.630;8.262;2023-05-13T01:26:21;19.90;56.10
27823;DHT22;29019;47.630;8.262;2023-05-13T01:30:23;19.90;56.10
27823;DHT22;29019;47.630;8.262;2023-05-13T01:34:25;19.90;56.10
27823;DHT22;29019;47.630;8.262;2023-05-13T01:38:27;19.90;56.10
27823;DHT22;29019;47.630;8.262;2023-05-13T01:42:28;19.90;56.10
27823;DHT22;29019;47.630;8.262;2023-05-13T01:46:29;19.90;56.10
27823;DHT22;29019;47.630;8.262;2023-05-13T01:50:30;19.90;56.10
27823;DHT22;29019;47.630;8.262;2023-05-13T01:54:31;19.90;56.10
27823;DHT22;29019;47.630;8.262;2023-05-13T01:58:31;19.90;56.10
27823;DHT22;29019;47.630;8.262;2023-05-13T02:02:32;19.90;56.10
27823;DHT22;29019;47.630;8.262;2023-05-13T02:06:33;19.90;56.10
27823;DHT22;29019;47.630;8.262;2023-05-13T02:10:33;19.90;56.10
27823;DHT22;29019;47.630;8.262;2023-05-13T02:14:34;19.90;56.10
27823;DHT22;29019;47.630;8.262;2023-05-13T02:18:34;19.90;56.10
27823;DHT22;29019;47.630;8.262;2023-05-13T02:22:35;19.90;56.10
27823;DHT22;29019;47.630;8.262;2023-05-13T02:26:36;19.90;56.10
27823;DHT22;29019;47.630;8.262;2023-05-13T02:30:37;19.90;56.10
27823;DHT22;29019;47.630;8.262;2023-05-13T02:34:38;19.90;56.10
27823;DHT22;29019;47.630;8.262;2023-05-13T02:38:38;19.90;56.10
27823;DHT22;29019;47.630;8.262;2023-05-13T02:42:39;19.90;56.10
27823;DHT22;29019;47.630;8.262;2023-05-13T02:46:40;19.90;56.10
27823;DHT22;29019;47.630;8.262;2023-05-13T02:50:41;19.90;56.10
27823;DHT22;29019;47.630;8.262;2023-05-13T02:54:41;19.90;56.10
27823;DHT22;29019;47.630;8.262;2023-05-13T02:58:42;19.90;56.20
27823;DHT22;29019;47.630;8.262;2023-05-13T03:02:43;19.80;56.10
27823;DHT22;29019;47.630;8.262;2023-05-13T03:06:43;19.90;56.20
27823;DHT22;29019;47.630;8.262;2023-05-13T03:10:44;19.90;56.20
27823;DHT22;29019;47.630;8.262;2023-05-13T03:14:45;19.90;56.20
27823;DHT22;29019;47.630;8.262;2023-05-13T03:18:45;19.90;56.20
27823;DHT22;29019;47.630;8.262;2023-05-13T03:22:46;19.90;56.20
27823;DHT22;29019;47.630;8.262;2023-05-13T03:26:47;19.90;56.20
27823;DHT22;29019;47.630;8.262;2023-05-13T03:30:47;19.90;56.20
27823;DHT22;29019;47.630;8.262;2023-05-13T03:34:48;19.90;56.70
27823;DHT22;29019;47.630;8.262;2023-05-13T03:38:49;19.90;56.20
27823;DHT22;29019;47.630;8.262;2023-05-13T03:42:49;19.90;56.20
27823;DHT22;29019;47.630;8.262;2023-05-13T03:46:50;19.90;56.20
27823;DHT22;29019;47.630;8.262;2023-05-13T03:50:51;19.90;56.20
27823;DHT22;29019;47.630;8.262;2023-05-13T03:54:52;19.90;56.10
27823;DHT22;29019;47.630;8.262;2023-05-13T03:58:53;19.90;56.10
27823;DHT22;29019;47.630;8.262;2023-05-13T04:02:54;19.90;56.10
27823;DHT22;29019;47.630;8.262;2023-05-13T04:06:54;19.80;56.10
27823;DHT22;29019;47.630;8.262;2023-05-13T04:10:55;19.90;56.30
27823;DHT22;29019;47.630;8.262;2023-05-13T04:14:56;19.90;56.20
27823;DHT22;29019;47.630;8.262;2023-05-13T04:18:57;19.90;56.10
27823;DHT22;29019;47.630;8.262;2023-05-13T04:22:58;19.90;56.00
27823;DHT22;29019;47.630;8.262;2023-05-13T04:26:58;20.00;56.00
27823;DHT22;29019;47.630;8.262;2023-05-13T04:30:59;20.00;55.90
27823;DHT22;29019;47.630;8.262;2023-05-13T04:35:00;20.00;55.80
27823;DHT22;29019;47.630;8.262;2023-05-13T04:39:01;20.00;55.80
27823;DHT22;29019;47.630;8.262;2023-05-13T04:43:01;20.00;55.80
27823;DHT22;29019;47.630;8.262;2023-05-13T04:47:02;20.00;55.80
27823;DHT22;29019;47.630;8.262;2023-05-13T04:51:03;20.00;55.80
27823;DHT22;29019;47.630;8.262;2023-05-13T04:55:04;20.00;55.80
27823;DHT22;29019;47.630;8.262;2023-05-13T04:59:04;20.00;55.80
27823;DHT22;29019;47.630;8.262;2023-05-13T05:03:05;20.00;55.80
27823;DHT22;29019;47.630;8.262;2023-05-13T05:07:05;20.00;55.80
27823;DHT22;29019;47.630;8.262;2023-05-13T05:11:06;20.00;56.30
27823;DHT22;29019;47.630;8.262;2023-05-13T05:15:07;20.00;55.80
27823;DHT22;29019;47.630;8.262;2023-05-13T05:19:14;20.00;55.70
27823;DHT22;29019;47.630;8.262;2023-05-13T05:23:15;20.00;55.80
27823;DHT22;29019;47.630;8.262;2023-05-13T05:27:16;20.00;56.30
27823;DHT22;29019;47.630;8.262;2023-05-13T05:31:17;20.00;55.80
27823;DHT22;29019;47.630;8.262;2023-05-13T05:35:17;20.00;55.80
27823;DHT22;29019;47.630;8.262;2023-05-13T05:39:19;20.00;55.80
27823;DHT22;29019;47.630;8.262;2023-05-13T05:43:19;20.00;55.80
27823;DHT22;29019;47.630;8.262;2023-05-13T05:47:20;20.00;55.80
27823;DHT22;29019;47.630;8.262;2023-05-13T05:51:21;20.00;55.80
27823;DHT22;29019;47.630;8.262;2023-05-13T05:55:21;20.00;55.80
27823;DHT22;29019;47.630;8.262;2023-05-13T05:59:22;20.00;55.80
27823;DHT22;29019;47.630;8.262;2023-05-13T06:03:23;20.00;55.90
27823;DHT22;29019;47.630;8.262;2023-05-13T06:07:23;20.00;56.00
27823;DHT22;29019;47.630;8.262;2023-05-13T06:11:24;20.00;55.90
27823;DHT22;29019;47.630;8.262;2023-05-13T06:15:25;20.00;55.80
27823;DHT22;29019;47.630;8.262;2023-05-13T06:19:26;20.10;55.70
27823;DHT22;29019;47.630;8.262;2023-05-13T06:23:26;20.10;55.70
27823;DHT22;29019;47.630;8.262;2023-05-13T06:27:27;20.10;55.70
27823;DHT22;29019;47.630;8.262;2023-05-13T06:31:28;20.10;55.70
27823;DHT22;29019;47.630;8.262;2023-05-13T06:35:28;20.10;55.60
27823;DHT22;29019;47.630;8.262;2023-05-13T06:39:29;20.10;55.70
27823;DHT22;29019;47.630;8.262;2023-05-13T06:43:30;20.10;55.70
27823;DHT22;29019;47.630;8.262;2023-05-13T06:47:30;20.10;55.70
27823;DHT22;29019;47.630;8.262;2023-05-13T06:51:31;20.10;55.70
27823;DHT22;29019;47.630;8.262;2023-05-13T06:55:33;20.10;55.70
27823;DHT22;29019;47.630;8.262;2023-05-13T06:59:40;20.10;55.80
27823;DHT22;29019;47.630;8.262;2023-05-13T07:03:41;20.10;55.70
27823;DHT22;29019;47.630;8.262;2023-05-13T07:07:42;20.10;55.60
27823;DHT22;29019;47.630;8.262;2023-05-13T07:11:43;20.10;55.60
27823;DHT22;29019;47.630;8.262;2023-05-13T07:15:43;20.10;55.60
27823;DHT22;29019;47.630;8.262;2023-05-13T07:19:46;20.10;55.60
27823;DHT22;29019;47.630;8.262;2023-05-13T07:23:47;20.10;55.60
27823;DHT22;29019;47.630;8.262;2023-05-13T07:27:47;20.10;55.60
27823;DHT22;29019;47.630;8.262;2023-05-13T07:31:48;20.10;55.60
27823;DHT22;29019;47.630;8.262;2023-05-13T07:35:49;20.10;55.60
27823;DHT22;29019;47.630;8.262;2023-05-13T07:39:49;20.10;55.60
27823;DHT22;29019;47.630;8.262;2023-05-13T07:43:50;20.10;55.70
27823;DHT22;29019;47.630;8.262;2023-05-13T07:47:51;20.10;55.70
27823;DHT22;29019;47.630;8.262;2023-05-13T07:51:52;20.10;55.70
27823;DHT22;29019;47.630;8.262;2023-05-13T07:55:52;20.00;55.70
27823;DHT22;29019;47.630;8.262;2023-05-13T07:59:53;20.00;55.60
27823;DHT22;29019;47.630;8.262;2023-05-13T08:03:54;20.00;55.70
27823;DHT22;29019;47.630;8.262;2023-05-13T08:07:55;20.00;55.70
27823;DHT22;29019;47.630;8.262;2023-05-13T08:11:55;20.00;55.70
27823;DHT22;29019;47.630;8.262;2023-05-13T08:16:00;20.00;55.70
27823;DHT22;29019;47.630;8.262;2023-05-13T08:20:02;20.00;55.70
27823;DHT22;29019;47.630;8.262;2023-05-13T08:24:02;20.00;55.70
27823;DHT22;29019;47.630;8.262;2023-05-13T08:28:03;20.00;55.80
27823;DHT22;29019;47.630;8.262;2023-05-13T08:32:04;20.00;55.70
27823;DHT22;29019;47.630;8.262;2023-05-13T08:36:05;20.00;55.70
27823;DHT22;29019;47.630;8.262;2023-05-13T08:40:06;20.00;55.70
27823;DHT22;29019;47.630;8.262;2023-05-13T08:44:11;20.00;55.80
27823;DHT22;29019;47.630;8.262;2023-05-13T08:48:16;20.00;55.80
27823;DHT22;29019;47.630;8.262;2023-05-13T08:52:18;20.00;55.80
27823;DHT22;29019;47.630;8.262;2023-05-13T08:56:20;20.00;55.90
27823;DHT22;29019;47.630;8.262;2023-05-13T09:00:24;20.00;55.90
27823;DHT22;29019;47.630;8.262;2023-05-13T09:04:25;20.10;56.20
27823;DHT22;29019;47.630;8.262;2023-05-13T09:08:26;20.10;55.70
27823;DHT22;29019;47.630;8.262;2023-05-13T09:16:46;20.10;55.60
27823;DHT22;29019;47.630;8.262;2023-05-13T09:20:47;20.10;55.60
27823;DHT22;29019;47.630;8.262;2023-05-13T09:24:54;20.10;55.60
27823;DHT22;29019;47.630;8.262;2023-05-13T09:29:21;20.10;55.60
27823;DHT22;29019;47.630;8.262;2023-05-13T09:33:29;20.10;55.60
27823;DHT22;29019;47.630;8.262;2023-05-13T09:37:31;20.10;55.60
27823;DHT22;29019;47.630;8.262;2023-05-13T09:41:31;20.10;55.60
27823;DHT22;29019;47.630;8.262;2023-05-13T09:45:33;20.10;55.60
27823;DHT22;29019;47.630;8.262;2023-05-13T09:49:34;20.10;55.70
27823;DHT22;29019;47.630;8.262;2023-05-13T09:53:35;20.10;55.70
27823;DHT22;29019;47.630;8.262;2023-05-13T09:57:35;20.10;55.70
27823;DHT22;29019;47.630;8.262;2023-05-13T10:01:38;20.00;55.60
27823;DHT22;29019;47.630;8.262;2023-05-13T10:05:40;20.00;55.60
27823;DHT22;29019;47.630;8.262;2023-05-13T10:09:42;20.00;55.60
27823;DHT22;29019;47.630;8.262;2023-05-13T10:13:49;20.00;55.60
27823;DHT22;29019;47.630;8.262;2023-05-13T10:17:52;20.00;55.60
27823;DHT22;29019;47.630;8.262;2023-05-13T10:21:53;20.00;55.60
27823;DHT22;29019;47.630;8.262;2023-05-13T10:25:53;20.00;55.60
27823;DHT22;29019;47.630;8.262;2023-05-13T10:29:56;20.00;55.60
27823;DHT22;29019;47.630;8.262;2023-05-13T10:33:57;20.00;55.70
27823;DHT22;29019;47.630;8.262;2023-05-13T10:38:44;20.00;55.60
27823;DHT22;29019;47.630;8.262;2023-05-13T10:42:55;20.00;55.70
27823;DHT22;29019;47.630;8.262;2023-05-13T10:47:01;20.00;55.70
27823;DHT22;29019;47.630;8.262;2023-05-13T10:51:03;20.00;55.90
27823;DHT22;29019;47.630;8.262;2023-05-13T10:55:15;20.00;56.30
27823;DHT22;29019;47.630;8.262;2023-05-13T10:59:16;20.00;55.70
27823;DHT22;29019;47.630;8.262;2023-05-13T11:07:18;20.10;55.60
27823;DHT22;29019;47.630;8.262;2023-05-13T11:15:22;20.10;55.50
27823;DHT22;29019;47.630;8.262;2023-05-13T11:19:34;20.10;55.60
27823;DHT22;29019;47.630;8.262;2023-05-13T11:23:58;20.10;55.50
27823;DHT22;29019;47.630;8.262;2023-05-13T11:28:00;20.10;55.60
27823;DHT22;29019;47.630;8.262;2023-05-13T11:32:02;20.10;55.60
27823;DHT22;29019;47.630;8.262;2023-05-13T11:36:04;20.10;55.50
27823;DHT22;29019;47.630;8.262;2023-05-13T11:40:05;20.10;55.50
27823;DHT22;29019;47.630;8.262;2023-05-13T11:44:06;20.10;55.40
27823;DHT22;29019;47.630;8.262;2023-05-13T11:48:21;20.10;55.50
27823;DHT22;29019;47.630;8.262;2023-05-13T11:52:22;20.10;55.40
27823;DHT22;29019;47.630;8.262;2023-05-13T11:56:25;20.10;55.50
27823;DHT22;29019;47.630;8.262;2023-05-13T12:00:32;20.10;55.50
27823;DHT22;29019;47.630;8.262;2023-05-13T12:04:33;20.10;55.50
27823;DHT22;29019;47.630;8.262;2023-05-13T12:08:34;20.10;55.50
27823;DHT22;29019;47.630;8.262;2023-05-13T12:12:42;20.10;55.50
27823;DHT22;29019;47.630;8.262;2023-05-13T12:16:43;20.10;55.50
27823;DHT22;29019;47.630;8.262;2023-05-13T12:20:44;20.10;55.60
27823;DHT22;29019;47.630;8.262;2023-05-13T12:24:45;20.10;55.60
27823;DHT22;29019;47.630;8.262;2023-05-13T12:28:46;20.10;55.60
27823;DHT22;29019;47.630;8.262;2023-05-13T12:32:47;20.00;55.60
27823;DHT22;29019;47.630;8.262;2023-05-13T12:36:47;20.00;55.60
27823;DHT22;29019;47.630;8.262;2023-05-13T12:40:49;20.00;55.60
27823;DHT22;29019;47.630;8.262;2023-05-13T12:44:50;20.00;55.60
27823;DHT22;29019;47.630;8.262;2023-05-13T12:48:53;20.00;55.70
27823;DHT22;29019;47.630;8.262;2023-05-13T12:52:54;20.00;55.70
27823;DHT22;29019;47.630;8.262;2023-05-13T12:56:56;20.00;55.70
27823;DHT22;29019;47.630;8.262;2023-05-13T13:00:57;20.00;55.70
27823;DHT22;29019;47.630;8.262;2023-05-13T13:04:58;20.00;55.70
27823;DHT22;29019;47.630;8.262;2023-05-13T13:08:58;20.00;55.70
27823;DHT22;29019;47.630;8.262;2023-05-13T13:12:59;20.00;55.70
27823;DHT22;29019;47.630;8.262;2023-05-13T13:17:00;20.00;55.70
27823;DHT22;29019;47.630;8.262;2023-05-13T13:21:01;20.00;55.70
27823;DHT22;29019;47.630;8.262;2023-05-13T13:25:03;20.00;55.70
27823;DHT22;29019;47.630;8.262;2023-05-13T13:29:04;20.00;55.70
27823;DHT22;29019;47.630;8.262;2023-05-13T13:33:05;20.00;55.70
27823;DHT22;29019;47.630;8.262;2023-05-13T13:37:05;20.00;55.80
27823;DHT22;29019;47.630;8.262;2023-05-13T13:41:06;20.00;55.90
27823;DHT22;29019;47.630;8.262;2023-05-13T13:45:07;20.10;55.80
27823;DHT22;29019;47.630;8.262;2023-05-13T13:49:08;20.10;55.70
27823;DHT22;29019;47.630;8.262;2023-05-13T13:53:09;20.10;55.60
27823;DHT22;29019;47.630;8.262;2023-05-13T13:57:10;20.10;55.60
27823;DHT22;29019;47.630;8.262;2023-05-13T14:01:11;20.10;55.50
27823;DHT22;29019;47.630;8.262;2023-05-13T14:05:11;20.10;55.50
27823;DHT22;29019;47.630;8.262;2023-05-13T14:09:12;20.10;55.50
27823;DHT22;29019;47.630;8.262;2023-05-13T14:13:14;20.10;55.50
27823;DHT22;29019;47.630;8.262;2023-05-13T14:17:15;20.10;55.50
27823;DHT22;29019;47.630;8.262;2023-05-13T14:21:16;20.10;55.50
27823;DHT22;29019;47.630;8.262;2023-05-13T14:25:16;20.10;55.60
27823;DHT22;29019;47.630;8.262;2023-05-13T14:29:17;20.10;55.60
27823;DHT22;29019;47.630;8.262;2023-05-13T14:33:18;20.10;55.60
27823;DHT22;29019;47.630;8.262;2023-05-13T14:37:18;20.10;55.60
27823;DHT22;29019;47.630;8.262;2023-05-13T14:41:19;20.10;55.60
27823;DHT22;29019;47.630;8.262;2023-05-13T14:45:21;20.10;55.60
27823;DHT22;29019;47.630;8.262;2023-05-13T14:49:22;20.10;55.60
27823;DHT22;29019;47.630;8.262;2023-05-13T14:53:23;20.10;55.60
27823;DHT22;29019;47.630;8.262;2023-05-13T14:57:24;20.10;55.60
27823;DHT22;29019;47.630;8.262;2023-05-13T15:01:24;20.10;55.60
27823;DHT22;29019;47.630;8.262;2023-05-13T15:05:25;20.10;55.60
27823;DHT22;29019;47.630;8.262;2023-05-13T15:09:26;20.10;55.60
27823;DHT22;29019;47.630;8.262;2023-05-13T15:13:26;20.10;55.60
27823;DHT22;29019;47.630;8.262;2023-05-13T15:17:28;20.00;55.60
27823;DHT22;29019;47.630;8.262;2023-05-13T15:21:29;20.00;55.60
27823;DHT22;29019;47.630;8.262;2023-05-13T15:25:30;20.00;55.60
27823;DHT22;29019;47.630;8.262;2023-05-13T15:29:31;20.00;55.60
27823;DHT22;29019;47.630;8.262;2023-05-13T15:33:31;20.00;55.70
27823;DHT22;29019;47.630;8.262;2023-05-13T15:37:32;20.00;55.80
27823;DHT22;29019;47.630;8.262;2023-05-13T15:41:33;20.00;55.80
27823;DHT22;29019;47.630;8.262;2023-05-13T15:45:33;20.10;55.70
27823;DHT22;29019;47.630;8.262;2023-05-13T15:49:34;20.10;55.60
27823;DHT22;29019;47.630;8.262;2023-05-13T15:53:35;20.10;55.50
27823;DHT22;29019;47.630;8.262;2023-05-13T15:57:35;20.10;55.50
27823;DHT22;29019;47.630;8.262;2023-05-13T16:01:36;20.10;56.00
27823;DHT22;29019;47.630;8.262;2023-05-13T16:05:39;20.10;55.50
27823;DHT22;29019;47.630;8.262;2023-05-13T16:09:40;20.10;55.50
27823;DHT22;29019;47.630;8.262;2023-05-13T16:13:41;20.10;55.50
27823;DHT22;29019;47.630;8.262;2023-05-13T16:17:41;20.10;55.50
27823;DHT22;29019;47.630;8.262;2023-05-13T16:21:42;20.10;55.50
27823;DHT22;29019;47.630;8.262;2023-05-13T16:25:43;20.10;55.50
27823;DHT22;29019;47.630;8.262;2023-05-13T16:29:43;20.10;55.50
27823;DHT22;29019;47.630;8.262;2023-05-13T16:33:45;20.10;55.60
27823;DHT22;29019;47.630;8.262;2023-05-13T16:37:46;20.10;55.60
27823;DHT22;29019;47.630;8.262;2023-05-13T16:41:47;20.10;55.60
27823;DHT22;29019;47.630;8.262;2023-05-13T16:45:48;20.10;55.60
27823;DHT22;29019;47.630;8.262;2023-05-13T16:49:48;20.10;55.60
27823;DHT22;29019;47.630;8.262;2023-05-13T16:53:49;20.10;55.60
27823;DHT22;29019;47.630;8.262;2023-05-13T16:57:50;20.10;55.80
27823;DHT22;29019;47.630;8.262;2023-05-13T17:01:52;20.10;55.70
27823;DHT22;29019;47.630;8.262;2023-05-13T17:05:52;20.10;55.60
27823;DHT22;29019;47.630;8.262;2023-05-13T17:09:53;20.10;55.60
27823;DHT22;29019;47.630;8.262;2023-05-13T17:13:54;20.10;55.50
27823;DHT22;29019;47.630;8.262;2023-05-13T17:17:54;20.10;55.50
27823;DHT22;29019;47.630;8.262;2023-05-13T17:21:55;20.10;55.50
27823;DHT22;29019;47.630;8.262;2023-05-13T17:25:56;20.10;55.50
27823;DHT22;29019;47.630;8.262;2023-05-13T17:29:57;20.10;55.50
27823;DHT22;29019;47.630;8.262;2023-05-13T17:33:57;20.10;55.50
27823;DHT22;29019;47.630;8.262;2023-05-13T17:37:58;20.10;55.60
27823;DHT22;29019;47.630;8.262;2023-05-13T17:41:58;20.10;55.60
27823;DHT22;29019;47.630;8.262;2023-05-13T17:45:59;20.00;55.60
27823;DHT22;29019;47.630;8.262;2023-05-13T17:50:00;20.10;55.60
27823;DHT22;29019;47.630;8.262;2023-05-13T17:54:00;20.00;55.50
27823;DHT22;29019;47.630;8.262;2023-05-13T17:58:01;20.00;56.40
27823;DHT22;29019;47.630;8.262;2023-05-13T18:02:02;20.00;56.40
27823;DHT22;29019;47.630;8.262;2023-05-13T18:06:03;20.00;56.50
27823;DHT22;29019;47.630;8.262;2023-05-13T18:10:04;20.00;56.20
27823;DHT22;29019;47.630;8.262;2023-05-13T18:14:05;20.00;56.20
27823;DHT22;29019;47.630;8.262;2023-05-13T18:18:06;20.10;55.70
27823;DHT22;29019;47.630;8.262;2023-05-13T18:22:07;20.10;55.50
27823;DHT22;29019;47.630;8.262;2023-05-13T18:26:10;20.10;55.60
27823;DHT22;29019;47.630;8.262;2023-05-13T18:30:11;20.10;55.70
27823;DHT22;29019;47.630;8.262;2023-05-13T18:34:12;20.20;55.60
27823;DHT22;29019;47.630;8.262;2023-05-13T18:38:12;20.20;55.70
27823;DHT22;29019;47.630;8.262;2023-05-13T18:42:13;20.20;56.50
27823;DHT22;29019;47.630;8.262;2023-05-13T18:46:14;20.30;56.20
27823;DHT22;29019;47.630;8.262;2023-05-13T18:50:15;20.40;56.10
27823;DHT22;29019;47.630;8.262;2023-05-13T18:54:16;20.40;56.00
27823;DHT22;29019;47.630;8.262;2023-05-13T18:58:16;20.50;56.00
27823;DHT22;29019;47.630;8.262;2023-05-13T19:02:17;20.50;55.90
27823;DHT22;29019;47.630;8.262;2023-05-13T19:06:18;20.50;55.90
27823;DHT22;29019;47.630;8.262;2023-05-13T19:10:18;20.60;56.00
27823;DHT22;29019;47.630;8.262;2023-05-13T19:14:19;20.60;55.80
27823;DHT22;29019;47.630;8.262;2023-05-13T19:18:20;20.70;55.90
27823;DHT22;29019;47.630;8.262;2023-05-13T19:22:21;20.70;55.80
27823;DHT22;29019;47.630;8.262;2023-05-13T19:26:21;20.70;55.80
27823;DHT22;29019;47.630;8.262;2023-05-13T19:30:22;20.70;55.90
27823;DHT22;29019;47.630;8.262;2023-05-13T19:34:22;20.70;55.70
27823;DHT22;29019;47.630;8.262;2023-05-13T19:38:23;20.80;55.60
27823;DHT22;29019;47.630;8.262;2023-05-13T19:42:24;20.80;55.50
27823;DHT22;29019;47.630;8.262;2023-05-13T19:46:25;20.80;55.50
27823;DHT22;29019;47.630;8.262;2023-05-13T19:50:25;20.80;55.60
27823;DHT22;29019;47.630;8.262;2023-05-13T19:54:26;20.80;55.50
27823;DHT22;29019;47.630;8.262;2023-05-13T19:58:27;20.80;55.70
27823;DHT22;29019;47.630;8.262;2023-05-13T20:02:27;20.80;55.70
27823;DHT22;29019;47.630;8.262;2023-05-13T20:06:28;20.70;55.70
27823;DHT22;29019;47.630;8.262;2023-05-13T20:10:29;20.80;55.70
27823;DHT22;29019;47.630;8.262;2023-05-13T20:14:44;20.70;55.80
27823;DHT22;29019;47.630;8.262;2023-05-13T20:18:45;20.70;55.90
27823;DHT22;29019;47.630;8.262;2023-05-13T20:22:46;20.70;55.90
27823;DHT22;29019;47.630;8.262;2023-05-13T20:26:46;20.70;55.90
27823;DHT22;29019;47.630;8.262;2023-05-13T20:30:51;20.70;56.00
27823;DHT22;29019;47.630;8.262;2023-05-13T20:34:52;20.60;56.10
27823;DHT22;29019;47.630;8.262;2023-05-13T20:38:53;20.60;56.10
27823;DHT22;29019;47.630;8.262;2023-05-13T20:42:54;20.60;56.20
27823;DHT22;29019;47.630;8.262;2023-05-13T20:46:55;20.70;56.20
27823;DHT22;29019;47.630;8.262;2023-05-13T20:51:02;20.70;56.20
27823;DHT22;29019;47.630;8.262;2023-05-13T20:55:04;20.70;56.10
27823;DHT22;29019;47.630;8.262;2023-05-13T20:59:05;20.70;56.10
27823;DHT22;29019;47.630;8.262;2023-05-13T21:03:05;20.70;56.20
27823;DHT22;29019;47.630;8.262;2023-05-13T21:07:06;20.60;56.10
27823;DHT22;29019;47.630;8.262;2023-05-13T21:11:07;20.60;56.00
27823;DHT22;29019;47.630;8.262;2023-05-13T21:15:08;20.70;56.20
27823;DHT22;29019;47.630;8.262;2023-05-13T21:19:23;20.70;56.10
27823;DHT22;29019;47.630;8.262;2023-05-13T21:23:24;20.70;56.10
27823;DHT22;29019;47.630;8.262;2023-05-13T21:27:25;20.60;56.20
27823;DHT22;29019;47.630;8.262;2023-05-13T21:31:25;20.70;56.30
27823;DHT22;29019;47.630;8.262;2023-05-13T21:35:26;20.70;56.40
27823;DHT22;29019;47.630;8.262;2023-05-13T21:39:27;20.70;56.50
27823;DHT22;29019;47.630;8.262;2023-05-13T21:43:27;20.70;56.50
27823;DHT22;29019;47.630;8.262;2023-05-13T21:47:28;20.70;56.40
27823;DHT22;29019;47.630;8.262;2023-05-13T21:51:29;20.70;56.30
27823;DHT22;29019;47.630;8.262;2023-05-13T21:55:31;20.70;56.40
27823;DHT22;29019;47.630;8.262;2023-05-13T21:59:36;20.70;56.40
27823;DHT22;29019;47.630;8.262;2023-05-13T22:03:36;20.70;56.50
27823;DHT22;29019;47.630;8.262;2023-05-13T22:07:37;20.80;56.40
27823;DHT22;29019;47.630;8.262;2023-05-13T22:11:39;20.80;56.30
27823;DHT22;29019;47.630;8.262;2023-05-13T22:15:39;20.80;56.30
27823;DHT22;29019;47.630;8.262;2023-05-13T22:19:40;20.80;56.10
27823;DHT22;29019;47.630;8.262;2023-05-13T22:23:41;20.80;56.10
27823;DHT22;29019;47.630;8.262;2023-05-13T22:27:42;20.80;56.00
27823;DHT22;29019;47.630;8.262;2023-05-13T22:31:42;20.80;56.10
27823;DHT22;29019;47.630;8.262;2023-05-13T22:35:43;20.80;56.50
27823;DHT22;29019;47.630;8.262;2023-05-13T22:39:44;20.80;56.00
27823;DHT22;29019;47.630;8.262;2023-05-13T22:43:45;20.80;56.00
27823;DHT22;29019;47.630;8.262;2023-05-13T22:47:47;20.80;56.00
27823;DHT22;29019;47.630;8.262;2023-05-13T22:51:49;20.80;56.00
27823;DHT22;29019;47.630;8.262;2023-05-13T22:55:50;20.80;55.90
27823;DHT22;29019;47.630;8.262;2023-05-13T22:59:51;20.90;56.00
27823;DHT22;29019;47.630;8.262;2023-05-13T23:03:52;20.90;56.50
27823;DHT22;29019;47.630;8.262;2023-05-13T23:07:53;20.80;56.10
27823;DHT22;29019;47.630;8.262;2023-05-13T23:11:54;20.80;56.10
27823;DHT22;29019;47.630;8.262;2023-05-13T23:15:54;20.80;56.20
27823;DHT22;29019;47.630;8.262;2023-05-13T23:19:55;20.80;56.30
27823;DHT22;29019;47.630;8.262;2023-05-13T23:23:56;20.80;56.30
27823;DHT22;29019;47.630;8.262;2023-05-13T23:27:57;20.80;56.30
27823;DHT22;29019;47.630;8.262;2023-05-13T23:31:57;20.80;56.30
27823;DHT22;29019;47.630;8.262;2023-05-13T23:35:58;20.80;56.30
27823;DHT22;29019;47.630;8.262;2023-05-13T23:39:59;20.80;56.30
27823;DHT22;29019;47.630;8.262;2023-05-13T23:44:01;20.80;56.40
27823;DHT22;29019;47.630;8.262;2023-05-13T23:48:02;20.80;56.30
27823;DHT22;29019;47.630;8.262;2023-05-13T23:52:03;20.80;56.30
27823;DHT22;29019;47.630;8.262;2023-05-13T23:56:04;20.80;56.40
